Terminal Aerodrome Forecast
Issued by NWS

Current Version | Previous Version | Graphics & Text | Print | Product List | Glossary On
Versions: 1 2 3 4 5 6 7 8 9 10 11 12 13 14 15 16 17 18 19 20
000
FTUS41 KRLX 011400 AAA
TAFCKB
TAF AMD
KCKB 011441Z 0115/0212 02007KT P6SM OVC015
     FM011800 03006KT P6SM BKN022
     FM012000 04006KT P6SM SCT045
     FM020400 00000KT P6SM FEW250
     FM020800 00000KT 5SM BR FEW250=

USA.gov is the U.S. government's official web portal to all federal, state and local government web resources and services.